createdAt,value
2017-10-08T00:02:51.268Z,79.00
2017-10-08T00:07:53.211Z,79.38
2017-10-08T00:12:55.149Z,79.09
2017-10-08T00:17:57.111Z,79.00
2017-10-08T00:22:59.022Z,78.90
2017-10-08T00:28:00.949Z,78.85
2017-10-08T00:33:02.915Z,78.61
2017-10-08T00:38:05.209Z,79.06
2017-10-08T00:43:07.211Z,78.83
2017-10-08T00:48:10.885Z,78.71
2017-10-08T00:53:12.908Z,78.72
2017-10-08T00:58:14.918Z,78.51
2017-10-08T01:03:17.457Z,78.10
2017-10-08T01:08:19.671Z,77.95
2017-10-08T01:13:22.302Z,77.95
2017-10-08T01:18:24.343Z,77.71
2017-10-08T01:23:26.343Z,78.06
2017-10-08T01:28:28.384Z,78.02
2017-10-08T01:33:30.462Z,77.75
2017-10-08T01:38:32.477Z,78.22
2017-10-08T01:43:34.552Z,78.03
2017-10-08T01:48:36.522Z,77.81
2017-10-08T01:53:39.339Z,77.81
2017-10-08T01:58:41.336Z,77.63
2017-10-08T02:03:44.128Z,77.51
2017-10-08T02:08:46.115Z,77.16
2017-10-08T02:13:48.072Z,76.92
2017-10-08T02:18:50.002Z,77.03
2017-10-08T02:23:51.903Z,76.88
2017-10-08T02:28:54.573Z,76.69
2017-10-08T02:33:57.257Z,76.64
2017-10-08T02:38:59.168Z,76.59
2017-10-08T02:44:01.087Z,76.29
2017-10-08T02:49:04.016Z,76.56
2017-10-08T02:54:06.011Z,76.62
2017-10-08T02:59:07.996Z,76.17
2017-10-08T03:04:10.063Z,76.33
2017-10-08T03:09:12.003Z,76.12
2017-10-08T03:14:13.990Z,75.92
2017-10-08T03:19:15.919Z,75.59
2017-10-08T03:24:17.919Z,75.79
2017-10-08T03:29:20.602Z,75.66
2017-10-08T03:34:23.288Z,75.57
2017-10-08T03:39:25.235Z,75.30
2017-10-08T03:44:28.313Z,75.25
2017-10-08T03:49:31.180Z,75.55
2017-10-08T03:54:33.175Z,75.49
2017-10-08T03:59:35.123Z,75.62
2017-10-08T04:04:37.043Z,76.08
2017-10-08T04:09:39.000Z,76.10
2017-10-08T04:14:40.934Z,76.54
2017-10-08T04:19:42.907Z,77.36
2017-10-08T04:24:44.835Z,77.72
2017-10-08T04:29:46.724Z,77.78
2017-10-08T04:34:49.479Z,77.54
2017-10-08T04:39:51.412Z,77.33
2017-10-08T04:44:53.341Z,77.37
2017-10-08T04:49:55.353Z,77.25
2017-10-08T04:54:57.291Z,77.10
2017-10-08T05:05:03.084Z,77.29
2017-10-08T05:10:05.189Z,77.25
2017-10-08T05:15:07.259Z,77.04
2017-10-08T05:20:09.198Z,76.69
2017-10-08T05:25:11.115Z,76.84
2017-10-08T05:30:20.663Z,76.92
2017-10-08T05:35:23.401Z,77.36
2017-10-08T05:40:26.063Z,77.31
2017-10-08T05:45:29.144Z,77.36
2017-10-08T05:50:31.820Z,78.00
2017-10-08T05:55:33.723Z,78.41
2017-10-08T06:00:35.695Z,78.65
2017-10-08T06:05:38.461Z,78.46
2017-10-08T06:10:41.155Z,77.74
2017-10-08T06:15:43.488Z,77.92
2017-10-08T06:20:45.455Z,78.61
2017-10-08T06:25:47.835Z,78.32
2017-10-08T06:30:50.226Z,78.20
2017-10-08T06:35:52.955Z,77.98
2017-10-08T06:40:55.020Z,77.74
2017-10-08T06:45:56.941Z,77.79
2017-10-08T06:50:58.879Z,77.58
2017-10-08T06:56:00.810Z,77.70
2017-10-08T07:01:02.839Z,76.98
2017-10-08T07:06:05.516Z,76.44
2017-10-08T07:11:08.160Z,76.22
2017-10-08T07:16:10.063Z,76.03
2017-10-08T07:21:12.173Z,75.79
2017-10-08T07:26:14.855Z,75.68
2017-10-08T07:31:25.808Z,75.35
2017-10-08T07:36:27.859Z,74.58
2017-10-08T07:41:30.085Z,74.33
2017-10-08T07:46:32.162Z,74.44
2017-10-08T07:51:34.125Z,74.47
2017-10-08T07:56:36.088Z,74.76
2017-10-08T08:01:38.819Z,75.13
2017-10-08T08:06:41.295Z,75.46
2017-10-08T08:11:43.571Z,74.54
2017-10-08T08:16:46.983Z,73.67
2017-10-08T08:21:48.968Z,73.21
2017-10-08T08:26:50.888Z,72.45
2017-10-08T08:31:52.804Z,72.88
2017-10-08T08:36:55.971Z,71.72
2017-10-08T08:41:58.945Z,70.70
2017-10-08T08:47:00.922Z,69.19
2017-10-08T08:52:02.884Z,69.38
2017-10-08T08:57:04.841Z,67.46
2017-10-08T09:02:06.823Z,64.45
2017-10-08T09:07:08.885Z,62.03
2017-10-08T09:12:11.552Z,60.26
2017-10-08T09:17:14.231Z,61.52
2017-10-08T09:22:16.889Z,60.64
2017-10-08T09:27:19.633Z,59.64
2017-10-08T09:32:21.751Z,59.18
2017-10-08T09:37:23.682Z,56.57
2017-10-08T09:42:26.796Z,56.17
2017-10-08T09:47:29.847Z,56.62
2017-10-08T09:52:31.817Z,55.90
2017-10-08T09:57:33.788Z,57.01
2017-10-08T10:02:35.879Z,57.90
2017-10-08T10:07:37.825Z,56.56
2017-10-08T10:12:39.724Z,55.52
2017-10-08T10:17:50.969Z,54.29
2017-10-08T10:22:55.026Z,53.77
2017-10-08T10:27:58.759Z,53.17
2017-10-08T10:33:01.616Z,51.06
2017-10-08T10:38:05.113Z,52.32
2017-10-08T10:43:11.945Z,52.33
2017-10-08T10:48:14.062Z,53.02
2017-10-08T10:53:16.638Z,52.53
2017-10-08T10:58:20.618Z,50.23
2017-10-08T11:03:22.737Z,47.97
2017-10-08T11:08:24.730Z,48.65
2017-10-08T11:13:27.848Z,50.52
2017-10-08T11:18:29.879Z,51.23
2017-10-08T11:23:31.804Z,51.79
2017-10-08T11:28:35.363Z,52.04
2017-10-08T11:33:38.066Z,52.40
2017-10-08T11:38:40.087Z,53.11
2017-10-08T11:43:42.136Z,54.24
2017-10-08T11:48:44.096Z,54.36
2017-10-08T11:53:46.010Z,52.58
2017-10-08T11:58:48.667Z,51.61
2017-10-08T12:03:50.650Z,49.28
2017-10-08T12:08:52.602Z,46.41
2017-10-08T12:13:54.557Z,44.84
2017-10-08T12:18:56.489Z,44.55
2017-10-08T12:24:03.308Z,45.10
2017-10-08T12:29:05.563Z,45.96
2017-10-08T12:34:07.476Z,44.64
2017-10-08T12:39:09.376Z,44.39
2017-10-08T12:44:11.431Z,44.39
2017-10-08T12:49:14.061Z,45.26
2017-10-08T12:54:15.991Z,46.24
2017-10-08T12:59:17.896Z,47.71
2017-10-08T13:04:20.603Z,47.86
2017-10-08T13:09:22.595Z,47.36
2017-10-08T13:14:25.259Z,47.93
2017-10-08T13:19:28.059Z,47.61
2017-10-08T13:24:30.024Z,53.01
2017-10-08T13:29:32.004Z,58.72
2017-10-08T13:34:34.994Z,61.04
2017-10-08T13:39:36.976Z,61.24
2017-10-08T13:44:38.895Z,60.96
2017-10-08T13:49:40.859Z,61.26
2017-10-08T13:54:42.779Z,61.40
2017-10-08T13:59:45.749Z,61.92
2017-10-08T14:04:48.858Z,63.51
2017-10-08T14:09:50.979Z,62.85
2017-10-08T14:14:54.020Z,62.69
2017-10-08T14:19:59.049Z,62.85
2017-10-08T14:25:01.459Z,62.83
2017-10-08T14:30:03.759Z,63.09
2017-10-08T14:35:06.155Z,62.68
2017-10-08T14:40:09.842Z,61.49
2017-10-08T14:45:12.995Z,60.30
2017-10-08T14:50:16.730Z,60.10
2017-10-08T14:55:18.786Z,60.77
2017-10-08T15:00:21.096Z,60.95
2017-10-08T15:05:23.802Z,60.52
2017-10-08T15:10:26.174Z,60.36
2017-10-08T15:15:29.314Z,60.75
2017-10-08T15:20:31.252Z,60.93
2017-10-08T15:25:33.292Z,61.28
2017-10-08T15:30:35.244Z,61.75
2017-10-08T15:35:37.192Z,60.10
2017-10-08T15:40:39.111Z,58.90
2017-10-08T15:45:41.829Z,56.90
2017-10-08T15:50:43.755Z,57.67
2017-10-08T15:55:45.720Z,58.09
2017-10-08T16:00:48.739Z,58.49
2017-10-08T16:05:51.437Z,59.04
2017-10-08T16:10:53.519Z,60.03
2017-10-08T16:15:55.834Z,61.07
2017-10-08T16:20:57.744Z,61.68
2017-10-08T16:25:59.719Z,62.12
2017-10-08T16:31:01.665Z,62.95
2017-10-08T16:36:04.396Z,63.15
2017-10-08T16:41:06.374Z,63.66
2017-10-08T16:46:08.344Z,63.66
2017-10-08T16:51:10.281Z,63.59
2017-10-08T16:56:12.242Z,64.30
2017-10-08T17:01:14.220Z,64.49
2017-10-08T17:06:16.153Z,64.68
2017-10-08T17:11:18.380Z,65.36
2017-10-08T17:16:20.323Z,65.75
2017-10-08T17:21:22.235Z,65.88
2017-10-08T17:31:39.960Z,66.30
2017-10-08T17:36:41.907Z,66.48
2017-10-08T17:41:43.843Z,66.89
2017-10-08T17:46:47.136Z,67.12
2017-10-08T17:51:49.973Z,67.41
2017-10-08T17:56:52.377Z,67.62
2017-10-08T18:01:55.624Z,67.78
2017-10-08T18:06:58.708Z,67.87
2017-10-08T18:12:02.129Z,67.98
2017-10-08T18:17:05.961Z,68.02
2017-10-08T18:22:08.049Z,68.21
2017-10-08T18:27:11.250Z,68.29
2017-10-08T18:32:13.334Z,68.56
2017-10-08T18:37:16.135Z,68.80
2017-10-08T18:42:19.381Z,69.11
2017-10-08T18:47:23.749Z,69.20
2017-10-08T18:52:30.358Z,69.24
2017-10-08T18:57:33.188Z,69.49
2017-10-08T19:02:35.299Z,69.65
2017-10-08T19:07:37.256Z,69.90
2017-10-08T19:12:39.248Z,69.90
2017-10-08T19:17:41.523Z,70.27
2017-10-08T19:22:43.876Z,70.13
2017-10-08T19:27:47.996Z,70.17
2017-10-08T19:32:51.350Z,70.14
2017-10-08T19:37:55.016Z,70.10
2017-10-08T19:43:00.081Z,70.40
2017-10-08T19:48:02.989Z,70.67
2017-10-08T19:53:04.976Z,70.63
2017-10-08T19:58:07.971Z,70.60
2017-10-08T20:03:10.329Z,70.25
2017-10-08T20:08:12.554Z,70.46
2017-10-08T20:13:14.708Z,70.40
2017-10-08T20:18:16.998Z,70.45
2017-10-08T20:23:18.915Z,70.44
2017-10-08T20:28:21.321Z,70.71
2017-10-08T20:33:24.225Z,70.47
2017-10-08T20:38:26.460Z,69.93
2017-10-08T20:43:29.455Z,69.43
2017-10-08T20:48:31.388Z,69.46
2017-10-08T20:53:33.288Z,69.67
2017-10-08T20:58:35.342Z,69.68
2017-10-08T21:03:38.258Z,69.39
2017-10-08T21:08:40.220Z,69.22
2017-10-08T21:13:42.160Z,69.50
2017-10-08T21:18:44.126Z,69.39
2017-10-08T21:23:46.083Z,69.57
2017-10-08T21:28:48.049Z,69.37
2017-10-08T21:33:50.098Z,69.61
2017-10-08T21:38:52.021Z,70.15
2017-10-08T21:43:53.917Z,70.31
2017-10-08T21:48:57.229Z,70.59
2017-10-08T21:53:59.179Z,70.35
2017-10-08T21:59:01.109Z,69.98
2017-10-08T22:04:03.141Z,70.37
2017-10-08T22:09:05.843Z,71.00
2017-10-08T22:14:07.785Z,71.20
2017-10-08T22:19:09.727Z,70.88
2017-10-08T22:24:11.664Z,70.67
2017-10-08T22:29:13.619Z,71.09
2017-10-08T22:34:16.244Z,71.20
2017-10-08T22:39:19.616Z,71.19
2017-10-08T22:44:22.242Z,71.13
2017-10-08T22:49:24.785Z,70.88
2017-10-08T22:54:27.581Z,70.60
2017-10-08T22:59:29.866Z,70.74
2017-10-08T23:04:32.602Z,71.13
2017-10-08T23:09:41.948Z,71.16
2017-10-08T23:14:44.569Z,71.19
2017-10-08T23:19:46.929Z,71.37
2017-10-08T23:24:49.087Z,71.22
2017-10-08T23:29:51.159Z,71.18
2017-10-08T23:34:53.779Z,71.20
2017-10-08T23:39:55.714Z,70.96
2017-10-08T23:44:58.362Z,71.05
2017-10-08T23:50:01.099Z,71.39
2017-10-08T23:55:03.087Z,71.33
